createdAt,value
2019-01-15T00:02:21.556Z,1.60
2019-01-15T00:04:49.908Z,1.60
2019-01-15T00:07:18.310Z,1.60
2019-01-15T00:09:46.710Z,1.60
2019-01-15T00:12:15.121Z,1.60
2019-01-15T00:14:43.569Z,1.60
2019-01-15T00:17:11.999Z,1.50
2019-01-15T00:19:40.385Z,1.60
2019-01-15T00:22:08.775Z,1.50
2019-01-15T00:24:37.186Z,1.50
2019-01-15T00:27:05.559Z,1.50
2019-01-15T00:29:33.968Z,1.40
2019-01-15T00:32:02.352Z,1.40
2019-01-15T00:40:02.347Z,1.50
2019-01-15T00:42:30.738Z,1.50
2019-01-15T00:44:59.101Z,1.50
2019-01-15T00:47:27.590Z,1.50
2019-01-15T00:49:55.954Z,1.50
2019-01-15T00:52:24.394Z,1.50
2019-01-15T00:54:52.784Z,1.50
2019-01-15T00:57:21.205Z,1.50
2019-01-15T00:59:49.611Z,1.40
2019-01-15T01:02:18.018Z,1.50
2019-01-15T01:04:46.468Z,1.50
2019-01-15T01:07:14.889Z,1.50
2019-01-15T01:09:43.350Z,1.50
2019-01-15T01:12:11.717Z,1.50
2019-01-15T01:14:40.058Z,1.50
2019-01-15T01:17:08.497Z,1.50
2019-01-15T01:19:36.909Z,1.60
2019-01-15T01:22:05.299Z,1.50
2019-01-15T01:24:33.689Z,1.50
2019-01-15T01:27:02.089Z,1.50
2019-01-15T01:29:30.582Z,1.50
2019-01-15T01:31:58.916Z,1.50
2019-01-15T01:34:27.389Z,1.50
2019-01-15T01:36:55.770Z,1.50
2019-01-15T01:39:24.201Z,1.50
2019-01-15T01:41:54.747Z,1.60
2019-01-15T01:44:23.123Z,1.60
2019-01-15T01:46:51.461Z,1.50
2019-01-15T01:49:19.907Z,1.50
2019-01-15T01:51:48.360Z,1.50
2019-01-15T01:54:16.831Z,1.50
2019-01-15T01:56:45.256Z,1.50
2019-01-15T01:59:13.647Z,1.40
2019-01-15T02:01:42.000Z,1.40
2019-01-15T02:04:10.384Z,1.50
2019-01-15T02:06:38.818Z,1.50
2019-01-15T02:09:07.983Z,1.50
2019-01-15T02:11:36.437Z,1.50
2019-01-15T02:14:04.828Z,1.60
2019-01-15T02:16:33.190Z,1.50
2019-01-15T02:19:01.681Z,1.50
2019-01-15T02:21:30.044Z,1.60
2019-01-15T02:23:58.518Z,1.60
2019-01-15T02:26:26.905Z,1.60
2019-01-15T02:28:55.298Z,1.60
2019-01-15T02:31:23.662Z,1.60
2019-01-15T02:33:52.054Z,1.60
2019-01-15T02:36:20.424Z,1.50
2019-01-15T02:38:48.756Z,1.60
2019-01-15T02:41:17.132Z,1.50
2019-01-15T02:43:45.545Z,1.40
2019-01-15T02:46:13.901Z,1.50
2019-01-15T02:48:42.269Z,1.40
2019-01-15T02:51:10.731Z,1.50
2019-01-15T02:53:39.129Z,1.50
2019-01-15T02:56:07.503Z,1.50
2019-01-15T02:58:35.802Z,1.50
2019-01-15T03:01:04.350Z,1.60
2019-01-15T03:03:32.805Z,1.50
2019-01-15T03:06:01.232Z,1.50
2019-01-15T03:08:29.670Z,1.40
2019-01-15T03:10:58.061Z,1.30
2019-01-15T03:13:26.443Z,1.30
2019-01-15T03:15:55.030Z,1.30
2019-01-15T03:18:23.429Z,1.30
2019-01-15T03:20:51.869Z,1.30
2019-01-15T03:23:20.290Z,1.30
2019-01-15T03:25:48.684Z,1.30
2019-01-15T03:28:17.062Z,1.30
2019-01-15T03:30:45.475Z,1.30
2019-01-15T03:33:13.840Z,1.30
2019-01-15T03:35:42.243Z,1.40
2019-01-15T03:38:10.627Z,1.40
2019-01-15T03:40:39.047Z,1.40
2019-01-15T03:43:07.398Z,1.40
2019-01-15T03:45:35.775Z,1.50
2019-01-15T03:48:04.172Z,1.40
2019-01-15T03:50:32.558Z,1.40
2019-01-15T03:53:00.936Z,1.40
2019-01-15T03:55:29.374Z,1.40
2019-01-15T03:57:57.785Z,1.40
2019-01-15T04:00:26.197Z,1.40
2019-01-15T04:02:54.634Z,1.40
2019-01-15T04:05:23.095Z,1.40
2019-01-15T04:07:53.093Z,1.30
2019-01-15T04:10:21.492Z,1.30
2019-01-15T04:12:49.850Z,1.20
2019-01-15T04:15:18.318Z,1.00
2019-01-15T04:17:46.727Z,0.80
2019-01-15T04:20:16.224Z,0.90
2019-01-15T04:22:44.609Z,0.80
2019-01-15T04:25:13.750Z,0.70
2019-01-15T04:27:42.211Z,0.80
2019-01-15T04:30:13.416Z,0.70
2019-01-15T04:32:41.899Z,0.70
2019-01-15T04:35:10.842Z,0.70
2019-01-15T04:37:39.327Z,0.70
2019-01-15T04:40:16.681Z,0.80
2019-01-15T04:42:45.092Z,0.90
2019-01-15T04:45:18.140Z,0.90
2019-01-15T04:47:46.658Z,0.90
2019-01-15T04:50:15.479Z,0.90
2019-01-15T04:52:44.809Z,0.90
2019-01-15T04:55:13.341Z,1.00
2019-01-15T04:57:41.652Z,1.00
2019-01-15T05:00:13.157Z,1.00
2019-01-15T05:02:41.831Z,1.00
2019-01-15T05:05:10.172Z,1.00
2019-01-15T05:07:38.546Z,1.10
2019-01-15T05:10:10.019Z,1.10
2019-01-15T05:12:38.387Z,1.10
2019-01-15T05:15:09.500Z,1.10
2019-01-15T05:17:37.899Z,1.20
2019-01-15T05:20:09.409Z,1.20
2019-01-15T05:22:37.725Z,1.20
2019-01-15T05:25:09.447Z,1.20
2019-01-15T05:27:37.805Z,1.30
2019-01-15T05:30:09.507Z,1.20
2019-01-15T05:32:38.007Z,1.20
2019-01-15T05:35:06.569Z,1.30
2019-01-15T05:37:35.078Z,1.30
2019-01-15T05:40:04.384Z,1.40
2019-01-15T05:42:32.766Z,1.40
2019-01-15T05:45:01.222Z,1.50
2019-01-15T05:47:30.154Z,1.50
2019-01-15T05:49:58.504Z,1.50
2019-01-15T05:52:26.913Z,1.50
2019-01-15T05:54:55.382Z,1.50
2019-01-15T05:57:23.789Z,1.50
2019-01-15T05:59:52.089Z,1.50
2019-01-15T06:02:20.542Z,1.50
2019-01-15T06:04:49.139Z,1.50
2019-01-15T06:07:17.741Z,1.50
2019-01-15T06:09:46.138Z,1.50
2019-01-15T06:12:14.660Z,1.60
2019-01-15T06:14:45.194Z,1.60
2019-01-15T06:17:13.537Z,1.60
2019-01-15T06:19:41.934Z,1.60
2019-01-15T06:22:10.351Z,1.50
2019-01-15T06:24:38.782Z,1.60
2019-01-15T06:27:07.142Z,1.60
2019-01-15T06:29:35.566Z,1.60
2019-01-15T06:32:03.957Z,1.60
2019-01-15T06:34:32.403Z,1.60
2019-01-15T06:37:00.808Z,1.60
2019-01-15T06:39:29.258Z,1.60
2019-01-15T06:41:57.651Z,1.60
2019-01-15T06:44:26.079Z,1.60
2019-01-15T06:46:57.202Z,1.60
2019-01-15T06:49:25.564Z,1.60
2019-01-15T06:51:53.942Z,1.60
2019-01-15T06:54:22.423Z,1.60
2019-01-15T06:56:50.858Z,1.60
2019-01-15T06:59:19.296Z,1.60
2019-01-15T07:01:47.746Z,1.60
2019-01-15T07:04:16.114Z,1.60
2019-01-15T07:06:44.596Z,1.70
2019-01-15T07:09:12.925Z,1.60
2019-01-15T07:11:41.390Z,1.60
2019-01-15T07:14:09.762Z,1.70
2019-01-15T07:16:38.320Z,1.70
2019-01-15T07:19:06.773Z,1.70
2019-01-15T07:21:35.269Z,1.70
2019-01-15T07:24:03.781Z,1.70
2019-01-15T07:26:32.166Z,1.60
2019-01-15T07:29:00.646Z,1.60
2019-01-15T07:31:29.033Z,1.70
2019-01-15T07:33:57.410Z,1.70
2019-01-15T07:36:25.727Z,1.70
2019-01-15T07:38:54.117Z,1.70
2019-01-15T07:41:22.508Z,1.70
2019-01-15T07:43:50.975Z,1.80
2019-01-15T07:46:19.405Z,1.70
2019-01-15T07:48:47.806Z,1.70
2019-01-15T07:51:16.190Z,1.80
2019-01-15T07:53:44.721Z,1.80
2019-01-15T07:56:13.171Z,1.80
2019-01-15T07:58:41.549Z,1.80
2019-01-15T08:01:09.969Z,1.80
2019-01-15T08:03:38.500Z,1.80
2019-01-15T08:06:06.906Z,1.80
2019-01-15T08:08:35.359Z,1.80
2019-01-15T08:11:03.739Z,1.80
2019-01-15T08:13:32.134Z,1.90
2019-01-15T08:16:00.521Z,1.90
2019-01-15T08:18:28.934Z,1.90
2019-01-15T08:20:57.347Z,1.90
2019-01-15T08:23:25.820Z,1.90
2019-01-15T08:25:54.166Z,1.90
2019-01-15T08:28:22.605Z,1.90
2019-01-15T08:30:51.015Z,2.00
2019-01-15T08:33:19.436Z,2.00
2019-01-15T08:35:47.794Z,2.00
2019-01-15T08:38:16.186Z,2.00
2019-01-15T08:40:44.536Z,2.00
2019-01-15T08:43:12.931Z,2.10
2019-01-15T08:45:44.435Z,2.10
2019-01-15T08:48:14.450Z,2.10
2019-01-15T08:50:42.854Z,2.00
2019-01-15T08:53:12.237Z,2.00
2019-01-15T08:55:40.632Z,2.00
2019-01-15T08:58:09.054Z,2.10
2019-01-15T09:00:37.362Z,2.10
2019-01-15T09:03:05.906Z,2.10
2019-01-15T09:05:34.354Z,2.10
2019-01-15T09:08:02.784Z,2.20
2019-01-15T09:10:31.155Z,2.20
2019-01-15T09:12:59.546Z,2.30
2019-01-15T09:15:27.933Z,2.30
2019-01-15T09:17:56.324Z,2.20
2019-01-15T09:20:24.798Z,2.20
2019-01-15T09:22:53.241Z,2.20
2019-01-15T09:25:21.677Z,2.30
2019-01-15T09:27:50.042Z,2.30
2019-01-15T09:30:21.014Z,2.30
2019-01-15T09:32:49.500Z,2.20
2019-01-15T09:35:18.023Z,2.30
2019-01-15T09:37:47.357Z,2.30
2019-01-15T09:40:18.432Z,2.40
2019-01-15T09:42:46.791Z,2.40
2019-01-15T09:45:17.111Z,2.30
2019-01-15T09:48:01.979Z,2.40
2019-01-15T09:50:30.398Z,2.40
2019-01-15T09:52:59.268Z,2.30
2019-01-15T09:55:27.611Z,2.40
2019-01-15T09:57:55.969Z,2.40
2019-01-15T10:00:24.286Z,2.50
2019-01-15T10:02:52.741Z,2.40
2019-01-15T10:05:21.247Z,2.50
2019-01-15T10:07:49.642Z,2.40
2019-01-15T10:10:18.113Z,2.50
2019-01-15T10:12:46.510Z,2.50
2019-01-15T10:15:20.285Z,2.50
2019-01-15T10:17:48.685Z,2.50
2019-01-15T10:20:18.513Z,2.50
2019-01-15T10:22:47.318Z,2.50
2019-01-15T10:25:17.356Z,2.60
2019-01-15T10:27:47.201Z,2.70
2019-01-15T10:30:26.663Z,2.70
2019-01-15T10:32:58.300Z,2.80
2019-01-15T10:35:29.953Z,2.90
2019-01-15T10:37:58.309Z,2.90
2019-01-15T10:40:26.918Z,3.00
2019-01-15T10:42:55.294Z,2.90
2019-01-15T10:45:23.705Z,2.90
2019-01-15T10:47:52.178Z,3.00
2019-01-15T10:50:20.556Z,3.10
2019-01-15T10:52:48.917Z,3.10
2019-01-15T10:55:17.299Z,3.00
2019-01-15T10:57:45.678Z,3.00
2019-01-15T11:00:14.387Z,3.00
2019-01-15T11:02:42.749Z,3.20
2019-01-15T11:05:12.152Z,3.20
2019-01-15T11:07:40.534Z,3.20
2019-01-15T11:10:14.920Z,3.30
2019-01-15T11:12:43.440Z,3.40
2019-01-15T11:15:11.803Z,3.40
2019-01-15T11:17:40.169Z,3.50
2019-01-15T11:20:14.606Z,3.60
2019-01-15T11:22:43.065Z,3.60
2019-01-15T11:25:11.507Z,3.70
2019-01-15T11:27:39.952Z,3.70
2019-01-15T11:30:13.094Z,3.70
2019-01-15T11:32:41.440Z,3.70
2019-01-15T11:35:11.590Z,3.80
2019-01-15T11:37:40.004Z,3.90
2019-01-15T11:40:11.101Z,3.90
2019-01-15T11:42:39.560Z,3.80
2019-01-15T11:45:18.706Z,3.90
2019-01-15T11:47:47.065Z,3.90
2019-01-15T11:50:20.209Z,3.90
2019-01-15T11:52:48.713Z,3.90
2019-01-15T11:55:17.206Z,3.90
2019-01-15T11:57:45.578Z,3.80
2019-01-15T12:00:24.910Z,3.80
2019-01-15T12:02:54.930Z,3.90
2019-01-15T12:05:39.857Z,3.90
2019-01-15T12:08:24.808Z,4.10
2019-01-15T12:11:10.943Z,4.10
2019-01-15T12:13:42.730Z,4.10
2019-01-15T12:16:12.786Z,4.30
2019-01-15T12:18:58.909Z,4.10
2019-01-15T12:21:44.041Z,4.40
2019-01-15T12:24:28.911Z,4.40
2019-01-15T12:26:59.006Z,4.50
2019-01-15T12:29:44.838Z,4.30
2019-01-15T12:32:14.990Z,4.30
2019-01-15T12:34:47.790Z,4.20
2019-01-15T12:37:17.911Z,4.20
2019-01-15T12:40:05.924Z,4.20
2019-01-15T12:42:51.952Z,4.30
2019-01-15T12:45:33.623Z,4.30
2019-01-15T12:48:21.500Z,4.20
2019-01-15T12:50:57.080Z,4.20
2019-01-15T12:53:43.040Z,4.30
2019-01-15T12:56:29.272Z,4.40
2019-01-15T12:58:59.335Z,4.30
2019-01-15T13:01:29.362Z,4.40
2019-01-15T13:04:08.381Z,4.50
2019-01-15T13:06:47.461Z,4.50
2019-01-15T13:09:20.384Z,4.50
2019-01-15T13:11:59.470Z,4.50
2019-01-15T13:14:37.959Z,4.50
2019-01-15T13:17:13.902Z,4.60
2019-01-15T13:19:43.917Z,4.50
2019-01-15T13:22:17.169Z,4.50
2019-01-15T13:24:56.050Z,4.60
2019-01-15T13:27:29.109Z,4.50
2019-01-15T13:30:01.797Z,4.30
2019-01-15T13:32:48.027Z,4.30
2019-01-15T13:35:34.404Z,4.30
2019-01-15T13:38:04.736Z,4.20
2019-01-15T13:40:40.360Z,4.30
2019-01-15T13:43:10.433Z,4.30
2019-01-15T13:45:43.303Z,4.30
2019-01-15T13:48:22.176Z,4.20
2019-01-15T13:51:01.359Z,4.20
2019-01-15T13:53:47.092Z,4.20
2019-01-15T13:56:20.061Z,4.20
2019-01-15T13:59:07.716Z,4.20
2019-01-15T14:01:40.421Z,4.20
2019-01-15T14:04:22.335Z,4.20
2019-01-15T14:07:08.334Z,4.10
2019-01-15T14:09:41.349Z,4.10
2019-01-15T14:12:14.025Z,4.10
2019-01-15T14:14:50.867Z,4.10
2019-01-15T14:17:20.885Z,4.10
2019-01-15T14:19:56.625Z,4.10
2019-01-15T14:22:26.609Z,4.00
2019-01-15T14:25:12.765Z,4.00
2019-01-15T14:27:45.531Z,3.90
2019-01-15T14:30:34.547Z,3.80
2019-01-15T14:33:04.613Z,3.80
2019-01-15T14:35:37.319Z,3.70
2019-01-15T14:38:07.338Z,3.70
2019-01-15T14:40:37.403Z,3.70
2019-01-15T14:43:19.250Z,3.70
2019-01-15T14:46:05.367Z,3.70
2019-01-15T14:48:38.186Z,3.70
2019-01-15T14:51:11.081Z,3.80
2019-01-15T14:53:58.956Z,3.70
2019-01-15T14:56:34.699Z,3.60
2019-01-15T14:59:10.495Z,3.70
2019-01-15T15:01:55.545Z,3.70
2019-01-15T15:04:28.123Z,3.70
2019-01-15T15:07:01.066Z,3.70
2019-01-15T15:09:31.165Z,3.70
2019-01-15T15:12:01.130Z,3.70
2019-01-15T15:14:31.219Z,3.60
2019-01-15T15:17:17.111Z,3.60
2019-01-15T15:19:52.707Z,3.60
2019-01-15T15:22:25.564Z,3.60
2019-01-15T15:25:11.809Z,3.60
2019-01-15T15:27:50.389Z,3.60
2019-01-15T15:30:26.467Z,3.60
2019-01-15T15:33:02.156Z,3.70
2019-01-15T15:35:48.132Z,3.60
2019-01-15T15:38:27.250Z,3.50
2019-01-15T15:41:09.014Z,3.50
2019-01-15T15:43:39.129Z,3.50
2019-01-15T15:46:18.299Z,3.50
2019-01-15T15:48:51.362Z,3.50
2019-01-15T15:51:21.451Z,3.50
2019-01-15T15:54:00.518Z,3.50
2019-01-15T15:56:33.325Z,3.50
2019-01-15T15:59:06.306Z,3.50
2019-01-15T16:01:36.247Z,3.50
2019-01-15T16:04:06.254Z,3.50
2019-01-15T16:06:41.984Z,3.50
2019-01-15T16:09:11.960Z,3.50
2019-01-15T16:11:53.754Z,3.50
2019-01-15T16:14:39.536Z,3.50
2019-01-15T16:17:15.045Z,3.50
2019-01-15T16:20:01.000Z,3.50
2019-01-15T16:22:47.051Z,3.50
2019-01-15T16:25:20.230Z,3.50
2019-01-15T16:28:05.094Z,3.50
2019-01-15T16:30:37.691Z,3.50
2019-01-15T16:33:13.694Z,3.50
2019-01-15T16:35:49.449Z,3.50
2019-01-15T16:38:34.591Z,3.50
2019-01-15T16:41:19.453Z,3.50
2019-01-15T16:43:57.966Z,3.50
2019-01-15T16:46:43.815Z,3.50
2019-01-15T16:49:13.883Z,3.50
2019-01-15T16:51:52.659Z,3.50
2019-01-15T16:54:37.530Z,3.50
2019-01-15T16:57:22.458Z,3.50
2019-01-15T17:00:10.527Z,3.50
2019-01-15T17:02:46.262Z,3.60
2019-01-15T17:05:16.362Z,3.60
2019-01-15T17:08:02.450Z,3.60
2019-01-15T17:10:35.116Z,3.60
2019-01-15T17:13:22.942Z,3.60
2019-01-15T17:16:11.068Z,3.60
2019-01-15T17:18:52.814Z,3.60
2019-01-15T17:21:40.553Z,3.60
2019-01-15T17:24:10.497Z,3.50
2019-01-15T17:26:46.269Z,3.50
2019-01-15T17:29:28.018Z,3.60
2019-01-15T17:32:00.950Z,3.60
2019-01-15T17:34:39.757Z,3.60
2019-01-15T17:37:25.929Z,3.60
2019-01-15T17:40:11.732Z,3.60
2019-01-15T17:42:41.737Z,3.60
2019-01-15T17:45:14.588Z,3.60
2019-01-15T17:48:00.753Z,3.60
2019-01-15T17:50:36.730Z,3.60
2019-01-15T17:53:22.788Z,3.70
2019-01-15T17:55:52.820Z,3.60
2019-01-15T17:58:22.818Z,3.70
2019-01-15T18:01:08.760Z,3.70
2019-01-15T18:03:55.031Z,3.70
2019-01-15T18:06:25.078Z,3.70
2019-01-15T18:09:00.987Z,3.70
2019-01-15T18:11:47.340Z,3.60
2019-01-15T18:14:26.917Z,3.70
2019-01-15T18:17:01.708Z,3.70
2019-01-15T18:19:34.433Z,3.70
2019-01-15T18:22:16.657Z,3.70
2019-01-15T18:24:46.815Z,3.70
2019-01-15T18:27:16.885Z,3.70
2019-01-15T18:29:49.921Z,3.70
2019-01-15T18:32:32.036Z,3.70
2019-01-15T18:35:04.616Z,3.70
2019-01-15T18:37:46.217Z,3.70
2019-01-15T18:40:28.256Z,3.70
2019-01-15T18:43:14.353Z,3.60
2019-01-15T18:45:49.726Z,3.60
2019-01-15T18:48:36.062Z,3.60
2019-01-15T18:51:20.993Z,3.70
2019-01-15T18:54:07.002Z,3.60
2019-01-15T18:56:37.002Z,3.60
2019-01-15T18:59:15.775Z,3.70
2019-01-15T19:01:54.571Z,3.60
2019-01-15T19:04:40.751Z,3.60
2019-01-15T19:07:13.462Z,3.70
2019-01-15T19:09:43.572Z,3.70
2019-01-15T19:12:28.392Z,3.70
2019-01-15T19:14:58.563Z,3.60
2019-01-15T19:17:31.067Z,3.60
2019-01-15T19:20:17.197Z,3.70
2019-01-15T19:23:04.383Z,3.60
2019-01-15T19:25:37.983Z,3.60
2019-01-15T19:28:16.572Z,3.50
2019-01-15T19:30:55.261Z,3.50
2019-01-15T19:33:33.994Z,3.50
2019-01-15T19:36:19.833Z,3.40
2019-01-15T19:38:49.937Z,3.40
2019-01-15T19:41:25.998Z,3.40
2019-01-15T19:44:11.802Z,3.40
2019-01-15T19:46:43.457Z,3.40
2019-01-15T19:49:13.457Z,3.40
2019-01-15T19:51:55.402Z,3.30
2019-01-15T19:54:31.079Z,3.30
2019-01-15T19:57:04.262Z,3.30
2019-01-15T19:59:50.901Z,3.30
2019-01-15T20:02:26.581Z,3.20
2019-01-15T20:04:56.701Z,3.20
2019-01-15T20:07:26.685Z,3.30
2019-01-15T20:10:05.454Z,3.30
2019-01-15T20:12:35.641Z,3.30
2019-01-15T20:15:18.358Z,3.30
2019-01-15T20:18:04.150Z,3.20
2019-01-15T20:20:49.976Z,3.10
2019-01-15T20:23:20.011Z,3.20
2019-01-15T20:25:58.824Z,3.10
2019-01-15T20:28:31.849Z,3.10
2019-01-15T20:31:10.801Z,3.10
2019-01-15T20:33:46.804Z,3.20
2019-01-15T20:36:19.943Z,3.10
2019-01-15T20:39:05.885Z,3.20
2019-01-15T20:41:35.927Z,3.10
2019-01-15T20:44:22.218Z,3.10
2019-01-15T20:47:08.278Z,3.10
2019-01-15T20:49:56.346Z,3.10
2019-01-15T20:52:32.295Z,3.10
2019-01-15T20:55:18.258Z,3.10
2019-01-15T20:57:48.293Z,3.10
2019-01-15T21:00:21.012Z,3.00
2019-01-15T21:02:51.052Z,3.10
2019-01-15T21:05:21.275Z,3.00
2019-01-15T21:07:56.802Z,3.00
2019-01-15T21:10:31.828Z,2.90
2019-01-15T21:13:17.252Z,2.90
2019-01-15T21:15:55.776Z,3.00
2019-01-15T21:18:31.821Z,2.90
2019-01-15T21:21:10.370Z,2.90
2019-01-15T21:23:43.082Z,2.90
2019-01-15T21:26:15.853Z,2.90
2019-01-15T21:28:48.725Z,2.90
2019-01-15T21:31:27.525Z,2.90
2019-01-15T21:34:13.473Z,2.90
2019-01-15T21:36:46.227Z,2.90
2019-01-15T21:39:32.570Z,2.90
2019-01-15T21:42:11.261Z,2.90
2019-01-15T21:44:41.310Z,2.80
2019-01-15T21:47:14.088Z,2.80
2019-01-15T21:49:44.100Z,2.80
2019-01-15T21:52:16.821Z,2.70
2019-01-15T21:54:46.863Z,2.80
2019-01-15T21:57:16.845Z,2.70
2019-01-15T21:59:46.869Z,2.70
2019-01-15T22:02:32.705Z,2.70
2019-01-15T22:05:18.521Z,2.60
2019-01-15T22:07:57.426Z,2.60
2019-01-15T22:10:33.417Z,2.60
2019-01-15T22:13:18.205Z,2.60
2019-01-15T22:15:48.221Z,2.50
2019-01-15T22:18:20.951Z,2.50
2019-01-15T22:21:02.501Z,2.50
2019-01-15T22:23:41.282Z,2.50
2019-01-15T22:26:11.228Z,2.40
2019-01-15T22:28:47.189Z,2.40
2019-01-15T22:31:35.013Z,2.40
2019-01-15T22:34:22.644Z,2.40
2019-01-15T22:37:10.462Z,2.40
2019-01-15T22:39:40.480Z,2.40
2019-01-15T22:42:10.497Z,2.40
2019-01-15T22:44:46.406Z,2.40
2019-01-15T22:47:16.412Z,2.40
2019-01-15T22:50:02.625Z,2.30
2019-01-15T22:52:35.319Z,2.30
2019-01-15T22:55:08.613Z,2.30
2019-01-15T22:57:38.695Z,2.30
2019-01-15T23:00:36.751Z,2.20
2019-01-15T23:03:09.652Z,2.20
2019-01-15T23:05:39.665Z,2.20
2019-01-15T23:08:21.598Z,2.10
2019-01-15T23:10:54.344Z,2.20
2019-01-15T23:13:27.009Z,2.10
2019-01-15T23:15:56.957Z,2.10
2019-01-15T23:18:29.873Z,2.10
2019-01-15T23:21:08.606Z,2.10
2019-01-15T23:23:54.522Z,2.10
2019-01-15T23:26:27.262Z,2.10
2019-01-15T23:29:00.014Z,2.10
2019-01-15T23:31:47.825Z,2.00
2019-01-15T23:34:33.665Z,2.00
2019-01-15T23:37:21.312Z,2.00
2019-01-15T23:39:54.176Z,2.00
2019-01-15T23:42:39.950Z,1.90
2019-01-15T23:45:26.116Z,1.90
2019-01-15T23:47:59.101Z,1.90
2019-01-15T23:50:44.989Z,1.90
2019-01-15T23:53:20.550Z,1.90
2019-01-15T23:55:50.502Z,1.90
2019-01-15T23:58:20.579Z,1.90
